Time;durP1;ratioP1;P1;durP2;ratioP2;P2;SDS_P1;SDS_P2;PMS_P1;PMS_P2;Temp;Humidity;BMP_temperature;BMP_pressure;BME280_temperature;BME280_humidity;BME280_pressure;Samples;Min_cycle;Max_cycle;Signal;HPM_P1;HPM_P2
2022/02/24 04:39:46;;;;;;;4.57;3.60;;;;;;;8.67;57.45;98933.66;6867578;28;20205;-84
2022/02/24 04:43:07;;;;;;;4.23;3.63;;;;;;;8.77;57.45;98953.81;6867554;28;20232;-85
2022/02/24 04:46:31;;;;;;;4.00;3.53;;;;;;;9.16;56.75;98979.28;6876034;28;20208;-83
2022/02/24 04:54:11;;;;;;;4.97;3.87;;;;;;;8.92;56.54;98976.13;6852735;28;20714;-83
2022/02/24 04:57:36;;;;;;;4.47;4.07;;;;;;;8.73;57.03;98957.09;6845222;29;20210;-82
2022/02/24 05:01:07;;;;;;;6.03;3.93;;;;;;;9.22;56.55;98975.81;6845102;28;20237;-83
2022/02/24 05:04:28;;;;;;;5.20;3.70;;;;;;;8.71;56.23;98876.63;6858124;28;20637;-84
2022/02/24 05:07:50;;;;;;;3.77;3.43;;;;;;;8.95;56.68;98930.03;6873592;28;20228;-85
2022/02/24 05:11:13;;;;;;;5.00;4.50;;;;;;;8.93;56.65;98933.94;6866383;28;20713;-84
2022/02/24 05:14:35;;;;;;;6.80;4.73;;;;;;;9.10;56.62;98947.75;6850839;28;20220;-85
2022/02/24 05:17:56;;;;;;;4.70;3.77;;;;;;;9.10;56.62;98923.56;6852149;28;20534;-85
2022/02/24 05:21:18;;;;;;;6.00;3.90;;;;;;;8.91;56.14;98927.94;6848245;28;20704;-84
2022/02/24 05:24:39;;;;;;;4.23;3.87;;;;;;;8.99;56.63;98918.69;6854135;28;20221;-87
2022/02/24 05:28:05;;;;;;;4.93;3.93;;;;;;;8.98;56.17;98929.66;6888591;28;20287;-80
2022/02/24 05:31:27;;;;;;;4.33;3.90;;;;;;;8.38;58.44;98925.66;6874397;28;20311;-79
2022/02/24 05:34:51;;;;;;;8.20;4.37;;;;;;;8.21;59.22;98921.53;6868593;28;20204;-82
2022/02/24 05:38:13;;;;;;;5.33;4.03;;;;;;;8.12;58.30;98882.31;6864085;28;20250;-81
2022/02/24 05:42:21;;;;;;;4.30;3.90;;;;;;;8.58;58.28;98915.97;6846276;28;20332;-84
2022/02/24 05:45:53;;;;;;;5.80;4.63;;;;;;;8.99;57.11;98909.81;6852511;28;20216;-82
2022/02/24 05:49:16;;;;;;;4.67;4.17;;;;;;;8.43;57.13;98805.84;6876374;28;20239;-84
2022/02/24 05:52:38;;;;;;;6.23;4.80;;;;;;;9.13;56.83;98916.16;6876238;28;20604;-82
2022/02/24 05:56:00;;;;;;;4.73;4.23;;;;;;;8.73;56.88;98858.44;6876462;28;20205;-88
2022/02/24 05:59:21;;;;;;;5.83;4.17;;;;;;;9.22;56.49;98913.94;6872594;28;20237;-84
2022/02/24 06:02:44;;;;;;;4.87;4.47;;;;;;;9.08;56.39;98909.47;6872762;28;20261;-84
2022/02/24 06:06:07;;;;;;;6.93;4.53;;;;;;;9.22;56.19;98894.28;6875160;28;20197;-83
2022/02/24 06:09:31;;;;;;;5.23;4.60;;;;;;;8.94;56.21;98863.84;6874434;28;20220;-83
2022/02/24 06:12:57;;;;;;;5.27;4.50;;;;;;;9.04;56.48;98870.53;6874160;28;20730;-82
2022/02/24 06:16:19;;;;;;;5.10;4.30;;;;;;;8.93;56.37;98876.44;6873133;28;20256;-82
2022/02/24 06:19:50;;;;;;;8.67;5.03;;;;;;;9.04;56.59;98893.94;6849810;28;20210;-83
2022/02/24 06:23:17;;;;;;;7.87;5.60;;;;;;;8.73;56.71;98858.44;6869384;28;20223;-85
2022/02/24 06:26:57;;;;;;;8.07;5.57;;;;;;;8.64;56.90;98848.03;6875761;28;20220;-84
2022/02/24 06:30:22;;;;;;;6.30;5.03;;;;;;;8.44;56.73;98822.81;6871512;28;20232;-82
2022/02/24 06:33:44;;;;;;;7.47;5.70;;;;;;;8.70;56.42;98833.81;6871327;28;20216;-83
2022/02/24 06:37:07;;;;;;;6.03;5.13;;;;;;;8.42;56.28;98781.91;6869776;28;20205;-82
2022/02/24 06:40:29;;;;;;;8.90;6.20;;;;;;;8.39;57.91;98870.91;6869385;28;20246;-82
2022/02/24 06:43:53;;;;;;;8.77;6.00;;;;;;;8.29;58.07;98879.28;6867022;28;20291;-83
2022/02/24 06:47:14;;;;;;;8.13;5.73;;;;;;;8.38;58.90;98872.75;6850192;28;20209;-84
2022/02/24 06:50:36;;;;;;;12.37;6.40;;;;;;;8.40;58.14;98846.56;6867288;28;20594;-83
2022/02/24 06:53:59;;;;;;;8.43;6.17;;;;;;;8.96;57.27;98904.81;6868651;28;20201;-82
2022/02/24 06:57:20;;;;;;;10.43;7.33;;;;;;;9.02;56.73;98901.34;6868111;28;20232;-83
2022/02/24 07:00:42;;;;;;;14.27;8.63;;;;;;;8.59;56.64;98788.66;6867898;28;20247;-82
2022/02/24 07:04:04;;;;;;;12.40;7.80;;;;;;;9.04;57.41;98889.38;6870664;28;20215;-83
2022/02/24 07:07:25;;;;;;;11.93;7.63;;;;;;;8.78;57.00;98834.53;6871574;28;20220;-83
2022/02/24 07:10:48;;;;;;;9.20;7.20;;;;;;;8.72;56.88;98813.78;6873070;28;20252;-83
2022/02/24 07:14:10;;;;;;;13.33;7.67;;;;;;;8.47;57.17;98815.22;6876457;28;20217;-83
2022/02/24 07:17:31;;;;;;;14.07;8.27;;;;;;;9.22;57.41;98868.22;6871466;28;20220;-83
2022/02/24 07:20:54;;;;;;;9.97;7.07;;;;;;;9.18;56.74;98872.34;6872023;28;20232;-83
2022/02/24 07:24:16;;;;;;;9.67;7.33;;;;;;;8.96;57.19;98824.13;6871821;28;20275;-83
2022/02/24 07:27:39;;;;;;;11.53;7.63;;;;;;;9.76;56.04;98868.38;6870884;28;20233;-83
2022/02/24 07:44:10;;;;;;;15.03;8.43;;;;;;;10.20;54.83;98849.97;6803851;28;20204;-82
2022/02/24 07:47:31;;;;;;;17.23;10.73;;;;;;;10.75;53.98;98847.03;6869463;28;20303;-82
2022/02/24 07:50:54;;;;;;;19.10;11.77;;;;;;;10.29;54.74;98851.47;6869002;28;20235;-80
2022/02/24 07:54:15;;;;;;;23.63;12.70;;;;;;;10.02;55.11;98842.41;6867848;28;20213;-80
2022/02/24 07:57:38;;;;;;;18.80;10.80;;;;;;;10.64;54.58;98826.06;6867465;28;20205;-80
2022/02/24 08:01:01;;;;;;;13.57;8.93;;;;;;;10.88;53.31;98823.63;6870653;28;20230;-81
2022/02/24 08:04:23;;;;;;;11.10;7.00;;;;;;;10.36;54.17;98830.75;6870883;28;20212;-80
2022/02/24 08:07:44;;;;;;;10.90;6.13;;;;;;;10.90;53.54;98823.38;6871488;28;20213;-80
2022/02/24 08:11:06;;;;;;;8.20;5.67;;;;;;;10.88;53.44;98815.53;6870681;28;20238;-80
2022/02/24 08:14:27;;;;;;;7.27;6.20;;;;;;;11.40;52.42;98823.56;6870736;28;20205;-80
2022/02/24 08:17:52;;;;;;;6.57;5.30;;;;;;;11.43;52.70;98809.66;6868184;28;20220;-80
2022/02/24 08:21:13;;;;;;;6.20;5.43;;;;;;;12.20;50.98;98813.19;6881237;28;20231;-80
2022/02/24 08:24:35;;;;;;;7.63;5.50;;;;;;;12.74;49.44;98820.81;6881819;28;20673;-80
2022/02/24 08:27:57;;;;;;;9.17;5.57;;;;;;;13.09;49.17;98794.97;6881011;28;20218;-80
2022/02/24 08:31:19;;;;;;;6.23;4.80;;;;;;;13.41;48.17;98797.38;6857757;28;20244;-80
2022/02/24 08:34:42;;;;;;;8.63;4.73;;;;;;;14.13;45.45;98786.53;6860742;28;20269;-80
2022/02/24 08:38:05;;;;;;;5.70;4.80;;;;;;;14.46;45.33;98778.00;6858980;28;20234;-80
2022/02/24 08:41:26;;;;;;;7.20;4.10;;;;;;;15.19;43.87;98768.47;6839843;28;20227;-80
2022/02/24 08:44:48;;;;;;;6.63;3.50;;;;;;;15.86;42.28;98755.09;6840555;29;20570;-80
2022/02/24 08:48:10;;;;;;;4.47;3.37;;;;;;;15.73;41.61;98671.09;6840076;29;20290;-80
2022/02/24 08:51:33;;;;;;;6.03;3.80;;;;;;;16.15;41.32;98755.97;6865471;28;20225;-79
2022/02/24 08:54:54;;;;;;;4.30;3.43;;;;;;;17.43;40.38;98757.75;6866283;28;20224;-80
2022/02/24 08:58:16;;;;;;;5.97;3.33;;;;;;;17.92;37.94;98733.09;6866510;28;20216;-80
2022/02/24 09:01:38;;;;;;;4.27;2.90;;;;;;;17.31;39.84;98741.47;6866732;28;20611;-80
2022/02/24 09:05:00;;;;;;;6.40;3.93;;;;;;;18.74;37.36;98739.25;6866722;28;20205;-80
2022/02/24 09:08:23;;;;;;;5.00;2.70;;;;;;;16.77;39.50;98736.78;6866044;28;20217;-80
2022/02/24 09:11:46;;;;;;;4.00;2.93;;;;;;;19.53;35.99;98727.31;6865630;28;20240;-80
2022/02/24 09:15:08;;;;;;;3.37;2.70;;;;;;;18.07;35.96;98711.47;6869182;28;20209;-80
2022/02/24 09:18:30;;;;;;;3.00;2.70;;;;;;;19.77;34.87;98718.44;6867050;28;20249;-80
2022/02/24 09:21:52;;;;;;;6.83;3.40;;;;;;;22.04;31.22;98708.22;6865237;28;20236;-80
2022/02/24 09:25:15;;;;;;;4.87;3.37;;;;;;;21.17;31.86;98700.44;6863396;28;20287;-80
2022/02/24 09:28:36;;;;;;;4.57;3.40;;;;;;;19.61;33.32;98648.31;6839720;29;20203;-80
2022/02/24 09:31:58;;;;;;;5.00;2.80;;;;;;;18.55;36.69;98689.63;6839219;28;20245;-80
2022/02/24 09:35:19;;;;;;;4.53;2.40;;;;;;;18.33;36.22;98642.44;6838835;29;20214;-80
2022/02/24 09:38:41;;;;;;;4.30;3.73;;;;;;;16.92;38.89;98687.19;6839522;29;20237;-80
2022/02/24 09:42:05;;;;;;;4.13;2.87;;;;;;;16.80;38.66;98681.00;6840237;28;20229;-80
2022/02/24 09:45:26;;;;;;;2.40;2.20;;;;;;;16.99;38.27;98682.38;6839183;29;20264;-80
2022/02/24 09:48:48;;;;;;;4.63;3.07;;;;;;;16.92;38.36;98670.84;6839179;29;20717;-80
2022/02/24 09:52:10;;;;;;;2.30;2.10;;;;;;;17.13;37.50;98676.34;6839973;28;20229;-80
2022/02/24 09:55:31;;;;;;;3.13;2.30;;;;;;;16.58;37.98;98675.44;6840129;28;20249;-80
2022/02/24 09:58:54;;;;;;;2.67;1.90;;;;;;;16.27;38.86;98680.59;6840277;28;20215;-80
2022/02/24 10:02:16;;;;;;;3.47;2.07;;;;;;;16.48;38.52;98669.00;6840912;28;20233;-80
2022/02/24 10:05:45;;;;;;;2.77;1.97;;;;;;;16.14;38.11;98629.19;6839990;28;20756;-80
2022/02/24 10:09:08;;;;;;;2.20;2.00;;;;;;;16.37;38.74;98667.16;6839073;29;20208;-80
2022/02/24 10:12:30;;;;;;;4.07;2.90;;;;;;;16.80;38.49;98640.16;6838653;28;20269;-79
2022/02/24 10:15:58;;;;;;;4.33;2.77;;;;;;;16.77;38.48;98630.59;6838279;29;20570;-80
2022/02/24 10:19:27;;;;;;;4.40;2.40;;;;;;;16.90;37.51;98640.28;6838824;29;20196;-80
2022/02/24 10:22:57;;;;;;;2.33;2.13;;;;;;;17.37;37.60;98636.91;6837632;28;20283;-80
2022/02/24 10:26:20;;;;;;;6.47;2.80;;;;;;;17.58;36.55;98632.56;6838230;29;20281;-80
2022/02/24 10:29:51;;;;;;;2.10;1.90;;;;;;;18.41;36.02;98625.59;6838702;29;20202;-80
2022/02/24 10:33:25;;;;;;;2.90;2.27;;;;;;;18.73;35.87;98626.41;6838608;28;20238;-80
2022/02/24 10:36:47;;;;;;;2.77;2.20;;;;;;;17.99;35.81;98615.59;6838875;29;20233;-80
2022/02/24 10:40:09;;;;;;;2.73;2.10;;;;;;;17.83;37.01;98595.53;6838706;28;20215;-80
2022/02/24 10:43:32;;;;;;;2.87;1.97;;;;;;;17.82;36.53;98615.66;6838272;29;20297;-80
2022/02/24 10:47:10;;;;;;;3.17;2.20;;;;;;;18.32;35.96;98620.84;6838094;28;20214;-80
2022/02/24 10:50:53;;;;;;;3.23;2.40;;;;;;;18.10;36.20;98604.53;6838473;28;20639;-80
2022/02/24 10:54:15;;;;;;;3.80;2.53;;;;;;;18.81;35.43;98611.47;6839072;29;20224;-80
2022/02/24 10:57:36;;;;;;;4.70;2.33;;;;;;;18.79;35.68;98610.88;6838518;29;20299;-80
2022/02/24 11:01:15;;;;;;;4.27;2.33;;;;;;;18.45;36.34;98587.69;6838295;28;20254;-80
2022/02/24 11:04:37;;;;;;;3.67;2.70;;;;;;;18.55;35.73;98596.78;6838352;29;20228;-80
2022/02/24 11:08:00;;;;;;;3.07;2.33;;;;;;;18.53;36.35;98570.81;6838234;29;20206;-80
2022/02/24 11:11:23;;;;;;;2.90;2.20;;;;;;;18.41;35.92;98567.44;6838144;28;20325;-80
2022/02/24 11:14:45;;;;;;;4.53;2.57;;;;;;;18.30;36.77;98577.44;6838606;29;20216;-81
2022/02/24 11:18:07;;;;;;;2.87;2.30;;;;;;;18.73;35.41;98551.84;6841824;28;20354;-80
2022/02/24 11:21:30;;;;;;;3.93;2.27;;;;;;;18.92;34.73;98558.53;6843215;28;20303;-80
2022/02/24 11:24:54;;;;;;;11.80;2.40;;;;;;;18.32;34.80;98561.66;6850303;29;20226;-80
2022/02/24 11:28:17;;;;;;;3.43;1.97;;;;;;;18.91;34.56;98565.06;6845827;29;20285;-80
2022/02/24 11:31:52;;;;;;;2.63;1.63;;;;;;;18.90;33.28;98549.75;6843925;28;20292;-80
2022/02/24 11:35:18;;;;;;;2.37;2.10;;;;;;;18.94;33.71;98542.69;6843488;29;20210;-80
2022/02/24 11:38:40;;;;;;;3.17;2.00;;;;;;;18.22;34.98;98544.34;6843284;29;20226;-80
2022/02/24 11:42:04;;;;;;;3.00;1.97;;;;;;;18.23;34.86;98494.94;6843957;28;20264;-80
2022/02/24 11:45:35;;;;;;;4.80;2.07;;;;;;;18.56;34.83;98542.97;6843742;29;20216;-80
2022/02/24 11:48:57;;;;;;;3.27;2.10;;;;;;;19.08;33.43;98481.00;6843615;28;20221;-79
2022/02/24 11:52:22;;;;;;;8.50;2.23;;;;;;;19.32;33.49;98524.03;6844444;28;20710;-80
2022/02/24 11:55:52;;;;;;;3.17;1.97;;;;;;;18.43;33.89;98532.50;6844070;29;20216;-80
2022/02/24 11:59:28;;;;;;;3.27;1.83;;;;;;;18.09;33.43;98509.28;6843935;29;20728;-80
2022/02/24 12:02:50;;;;;;;4.20;1.67;;;;;;;18.78;33.13;98513.63;6843971;28;20232;-80
2022/02/24 12:06:12;;;;;;;3.03;1.90;;;;;;;19.01;32.53;98496.81;6842757;29;20358;-80
2022/02/24 12:09:35;;;;;;;2.57;1.87;;;;;;;19.20;32.39;98508.91;6842965;29;20226;-80
2022/02/24 12:12:57;;;;;;;3.00;2.07;;;;;;;18.52;31.59;98509.13;6844239;28;20268;-80
2022/02/24 12:16:22;;;;;;;3.23;1.60;;;;;;;17.39;32.78;98454.09;6842776;29;20263;-80
2022/02/24 12:19:46;;;;;;;6.40;2.00;;;;;;;17.62;31.81;98464.66;6843826;29;20202;-79
2022/02/24 12:23:19;;;;;;;2.50;2.00;;;;;;;17.93;31.35;98486.50;6842948;28;20234;-79
2022/02/24 12:26:43;;;;;;;2.30;1.63;;;;;;;17.91;32.46;98466.00;6843615;29;20213;-80
2022/02/24 12:30:27;;;;;;;2.40;1.80;;;;;;;18.22;31.65;98493.28;6843133;28;20217;-80
2022/02/24 12:33:51;;;;;;;4.17;2.03;;;;;;;18.18;31.20;98491.34;6848316;29;20237;-80
2022/02/24 12:37:13;;;;;;;2.53;1.83;;;;;;;18.12;31.56;98487.78;6849324;29;20568;-80
2022/02/24 12:40:37;;;;;;;4.67;2.23;;;;;;;18.01;31.42;98477.03;6841171;28;20227;-80
2022/02/24 12:43:59;;;;;;;2.37;1.87;;;;;;;18.39;31.45;98431.22;6841186;29;20209;-80
2022/02/24 12:47:21;;;;;;;2.57;1.83;;;;;;;18.45;31.50;98478.50;6841045;29;20353;-80
2022/02/24 12:50:45;;;;;;;2.23;1.77;;;;;;;18.14;32.26;98473.84;6841927;28;20329;-80
2022/02/24 12:54:11;;;;;;;2.50;1.90;;;;;;;18.57;31.19;98446.34;6843394;29;20701;-80
2022/02/24 12:57:33;;;;;;;5.13;2.40;;;;;;;17.81;31.78;98471.41;6844069;29;20632;-80
2022/02/24 13:00:57;;;;;;;4.67;2.00;;;;;;;18.17;31.39;98465.97;6845014;28;20289;-80
2022/02/24 13:04:19;;;;;;;4.37;2.27;;;;;;;18.11;31.23;98447.91;6864917;28;20293;-80
2022/02/24 13:11:23;;;;;;;2.13;1.80;;;;;;;17.54;31.59;98438.72;6840567;28;20238;-80
2022/02/24 13:14:46;;;;;;;5.80;2.10;;;;;;;17.70;32.32;98445.13;6838025;29;20210;-79
2022/02/24 13:18:08;;;;;;;4.63;2.23;;;;;;;17.44;32.34;98419.53;6837014;29;20210;-80
2022/02/24 13:21:29;;;;;;;2.73;1.80;;;;;;;17.49;32.41;98432.38;6836646;28;20309;-80
2022/02/24 13:24:52;;;;;;;2.97;1.70;;;;;;;18.06;31.83;98439.72;6837556;29;20194;-81
2022/02/24 13:28:15;;;;;;;4.90;1.87;;;;;;;17.39;32.73;98432.28;6836830;29;20207;-80
2022/02/24 13:31:37;;;;;;;6.90;2.50;;;;;;;17.46;32.34;98428.25;6837297;28;20279;-80
2022/02/24 13:34:59;;;;;;;3.90;2.20;;;;;;;17.47;32.89;98451.72;6837567;28;20263;-80
2022/02/24 13:38:20;;;;;;;8.83;2.40;;;;;;;17.36;32.76;98444.50;6836997;29;20211;-80
2022/02/24 13:41:51;;;;;;;5.93;2.10;;;;;;;17.76;32.91;98455.00;6837350;28;20230;-80
2022/02/24 13:45:17;;;;;;;5.93;2.17;;;;;;;17.63;32.77;98447.25;6838519;29;20197;-81
2022/02/24 13:48:40;;;;;;;5.50;1.90;;;;;;;17.64;32.74;98440.72;6844966;29;20213;-81
2022/02/24 13:52:03;;;;;;;6.57;1.97;;;;;;;17.44;32.88;98441.31;6857179;28;20242;-81
2022/02/24 13:55:28;;;;;;;4.00;2.40;;;;;;;17.76;33.11;98433.97;6851704;29;20305;-80
2022/02/24 13:58:51;;;;;;;7.57;1.97;;;;;;;17.94;32.58;98443.69;6838266;29;20190;-80
2022/02/24 14:02:16;;;;;;;4.27;2.10;;;;;;;17.93;32.21;98444.78;6838276;28;20237;-80
2022/02/24 14:05:38;;;;;;;3.47;1.70;;;;;;;17.99;32.40;98449.19;6836645;29;20678;-80
2022/02/24 14:09:00;;;;;;;3.53;1.73;;;;;;;17.67;32.58;98418.34;6836921;28;20209;-80
2022/02/24 14:12:23;;;;;;;4.47;2.10;;;;;;;16.99;32.73;98383.59;6837623;28;20241;-80
2022/02/24 14:15:46;;;;;;;4.07;2.40;;;;;;;17.62;32.54;98438.22;6837131;29;20693;-80
2022/02/24 14:19:09;;;;;;;6.73;2.20;;;;;;;17.72;32.81;98432.88;6838467;29;20699;-80
2022/02/24 14:22:31;;;;;;;3.27;2.10;;;;;;;17.72;32.84;98418.41;6837224;28;20222;-80
2022/02/24 14:25:52;;;;;;;3.80;2.10;;;;;;;17.19;33.31;98442.94;6837767;29;20190;-80
2022/02/24 14:29:19;;;;;;;2.10;1.80;;;;;;;16.70;34.06;98433.09;6837669;29;20213;-80
2022/02/24 14:32:42;;;;;;;4.43;2.20;;;;;;;16.45;34.51;98432.75;6836453;28;20240;-80
2022/02/24 14:36:04;;;;;;;5.23;2.20;;;;;;;17.11;34.09;98436.03;6836479;29;20575;-80
2022/02/24 14:39:29;;;;;;;2.90;1.80;;;;;;;16.84;34.06;98424.28;6836693;29;20214;-80
2022/02/24 14:42:51;;;;;;;4.77;1.87;;;;;;;16.57;34.71;98425.31;6837308;28;20229;-80
2022/02/24 14:46:13;;;;;;;4.87;2.10;;;;;;;17.06;34.13;98406.03;6836524;29;20292;-80
2022/02/24 14:49:36;;;;;;;3.30;2.23;;;;;;;17.40;33.72;98417.59;6837427;29;20215;-80
2022/02/24 14:52:57;;;;;;;4.93;2.03;;;;;;;17.73;32.65;98403.69;6841317;28;20237;-80
2022/02/24 14:56:19;;;;;;;7.20;2.30;;;;;;;17.05;34.14;98423.44;6843295;29;20343;-80
2022/02/24 14:59:40;;;;;;;5.33;2.17;;;;;;;17.00;34.25;98417.94;6843706;29;20208;-80
2022/02/24 15:03:03;;;;;;;2.87;2.20;;;;;;;17.28;34.09;98422.31;6842856;28;20233;-80
2022/02/24 15:06:27;;;;;;;3.57;2.30;;;;;;;17.20;34.20;98429.06;6842819;29;20216;-80
2022/02/24 15:09:48;;;;;;;5.43;2.17;;;;;;;17.12;34.23;98421.34;6843534;29;20221;-80
2022/02/24 15:13:10;;;;;;;3.67;2.10;;;;;;;16.87;34.55;98412.06;6842267;28;20655;-82
2022/02/24 15:16:32;;;;;;;2.97;2.20;;;;;;;17.21;34.23;98430.69;6841555;29;20230;-79
2022/02/24 15:19:53;;;;;;;4.47;2.40;;;;;;;17.13;34.69;98433.06;6877754;28;20208;-80
2022/02/24 15:23:17;;;;;;;6.23;2.60;;;;;;;16.37;35.76;98435.84;6895205;28;20224;-80
2022/02/24 15:26:39;;;;;;;5.57;2.20;;;;;;;16.92;34.85;98442.09;6895564;28;20254;-79
2022/02/24 15:30:01;;;;;;;3.27;2.20;;;;;;;16.65;35.21;98433.84;6895540;28;20207;-80
2022/02/24 15:33:25;;;;;;;4.60;2.17;;;;;;;16.69;35.34;98434.16;6895346;28;20239;-80
2022/02/24 15:36:46;;;;;;;3.93;2.07;;;;;;;16.98;35.21;98420.09;6895831;28;20231;-80
2022/02/24 15:40:12;;;;;;;4.53;2.20;;;;;;;17.16;34.92;98438.00;6894075;28;20205;-80
2022/02/24 15:43:34;;;;;;;3.73;2.30;;;;;;;17.30;34.77;98420.16;6842147;29;20572;-80
2022/02/24 15:46:55;;;;;;;3.77;2.27;;;;;;;17.21;34.79;98427.97;6842052;29;20213;-80
2022/02/24 15:50:17;;;;;;;3.87;2.30;;;;;;;16.88;35.38;98438.22;6842082;28;20210;-80
2022/02/24 15:53:38;;;;;;;5.10;2.40;;;;;;;16.51;34.74;98432.56;6841865;29;20272;-80
2022/02/24 15:57:01;;;;;;;2.83;2.20;;;;;;;16.41;35.02;98418.84;6842786;29;20688;-80
2022/02/24 16:00:23;;;;;;;3.20;2.10;;;;;;;16.60;35.30;98420.16;6841636;28;20213;-80
2022/02/24 16:03:45;;;;;;;2.47;2.27;;;;;;;16.94;34.53;98423.56;6848751;28;20353;-80
2022/02/24 16:07:06;;;;;;;4.60;2.50;;;;;;;16.65;34.44;98424.84;6869231;28;20213;-79
2022/02/24 16:10:28;;;;;;;3.27;1.97;;;;;;;16.44;34.97;98431.09;6867855;28;20226;-79
2022/02/24 16:13:51;;;;;;;2.60;2.30;;;;;;;16.38;34.59;98389.41;6865027;28;20230;-80
2022/02/24 16:17:12;;;;;;;5.27;2.10;;;;;;;16.83;34.30;98414.47;6859756;28;20205;-80
2022/02/24 16:20:34;;;;;;;2.20;2.00;;;;;;;17.00;33.97;98422.56;6847370;28;20228;-80
2022/02/24 16:23:56;;;;;;;5.63;1.93;;;;;;;17.20;33.61;98426.34;6866710;28;20236;-80
2022/02/24 16:27:20;;;;;;;7.20;2.30;;;;;;;16.85;34.93;98428.66;6866839;28;20317;-80
2022/02/24 16:34:05;;;;;;;3.03;2.00;;;;;;;16.20;34.91;98345.31;6858455;28;20232;-72
2022/02/24 16:37:27;;;;;;;2.80;2.30;;;;;;;16.09;35.73;98387.88;6861827;28;20243;-72
2022/02/24 16:40:49;;;;;;;6.27;2.13;;;;;;;16.34;35.76;98426.31;6863135;28;20208;-73
2022/02/24 16:44:10;;;;;;;3.23;2.53;;;;;;;16.41;35.43;98371.75;6863636;28;20194;-72
2022/02/24 16:47:43;;;;;;;3.40;2.40;;;;;;;16.25;35.68;98438.69;6862989;28;20219;-72
2022/02/24 16:51:06;;;;;;;5.20;2.30;;;;;;;16.71;34.55;98397.44;6863081;28;20209;-72
2022/02/24 16:54:28;;;;;;;5.30;2.67;;;;;;;16.23;35.41;98429.13;6862341;28;20944;-72
2022/02/24 16:57:50;;;;;;;2.93;2.00;;;;;;;15.74;34.82;98338.41;6861589;28;20709;-72
2022/02/24 17:01:12;;;;;;;3.93;2.13;;;;;;;16.02;34.95;98403.53;6860748;28;20219;-72
2022/02/24 17:04:34;;;;;;;7.53;2.80;;;;;;;16.43;34.66;98389.47;6853254;28;20588;-72
2022/02/24 17:07:59;;;;;;;2.60;1.90;;;;;;;16.13;34.09;98290.28;6863012;28;20217;-72
2022/02/24 17:11:21;;;;;;;4.40;2.33;;;;;;;16.50;34.24;98408.31;6846444;28;20216;-72
2022/02/24 17:14:42;;;;;;;4.37;2.30;;;;;;;15.97;34.62;98331.94;6836731;28;20314;-72
2022/02/24 17:18:04;;;;;;;4.80;2.40;;;;;;;16.46;34.42;98426.25;6837047;29;20215;-72
2022/02/24 17:21:27;;;;;;;3.30;1.80;;;;;;;16.14;34.57;98417.84;6845751;28;20693;-72
2022/02/24 17:24:50;;;;;;;3.93;2.60;;;;;;;16.27;35.00;98433.81;6863407;28;20602;-72
2022/02/24 17:28:11;;;;;;;4.57;2.50;;;;;;;15.75;35.19;98374.56;6863023;28;20217;-72
2022/02/24 17:31:35;;;;;;;4.30;2.20;;;;;;;16.02;35.02;98397.25;6862673;28;20594;-72
2022/02/24 17:34:57;;;;;;;2.77;2.27;;;;;;;16.06;34.97;98437.34;6861348;28;20318;-72
2022/02/24 17:38:18;;;;;;;4.43;2.40;;;;;;;16.20;35.03;98448.66;6859146;28;20224;-72
2022/02/24 17:41:42;;;;;;;3.50;2.30;;;;;;;15.77;35.37;98429.50;6836079;29;20212;-72
2022/02/24 17:45:04;;;;;;;3.17;2.67;;;;;;;15.73;35.37;98388.41;6836090;28;20213;-72
2022/02/24 17:48:26;;;;;;;3.80;2.80;;;;;;;15.71;35.63;98398.72;6849489;28;20293;-72
2022/02/24 17:51:47;;;;;;;2.70;2.43;;;;;;;15.95;34.59;98359.38;6854263;28;20580;-72
2022/02/24 17:55:09;;;;;;;4.47;2.40;;;;;;;15.65;35.94;98440.47;6844138;28;20233;-72
2022/02/24 17:58:32;;;;;;;3.90;3.50;;;;;;;15.64;35.46;98353.75;6862048;28;20309;-72
2022/02/24 18:01:54;;;;;;;3.63;2.60;;;;;;;16.20;35.04;98432.34;6862668;28;20694;-72
2022/02/24 18:05:15;;;;;;;5.27;2.80;;;;;;;16.25;35.09;98424.25;6860698;28;20218;-72
2022/02/24 18:08:37;;;;;;;4.90;3.03;;;;;;;15.80;35.25;98363.78;6862155;28;20213;-72
2022/02/24 18:11:59;;;;;;;3.67;2.87;;;;;;;15.94;35.03;98384.09;6860276;28;20204;-72
2022/02/24 18:15:22;;;;;;;2.77;2.47;;;;;;;15.70;36.16;98453.31;6839576;28;20209;-72
2022/02/24 18:18:45;;;;;;;7.07;3.00;;;;;;;15.68;36.36;98471.78;6861829;28;20665;-72
2022/02/24 18:22:07;;;;;;;5.57;2.97;;;;;;;15.65;36.13;98459.50;6858835;28;20220;-72
2022/02/24 18:25:29;;;;;;;6.20;2.97;;;;;;;15.79;35.89;98430.91;6861403;28;20240;-72
2022/02/24 18:28:51;;;;;;;4.33;2.53;;;;;;;15.86;35.82;98444.34;6861958;28;20208;-72
2022/02/24 18:32:14;;;;;;;5.00;2.50;;;;;;;15.28;35.87;98368.59;6861818;28;20217;-72
2022/02/24 18:35:36;;;;;;;4.33;2.80;;;;;;;15.51;36.34;98439.13;6861783;28;20219;-72
2022/02/24 18:38:58;;;;;;;3.70;2.60;;;;;;;14.87;36.74;98355.34;6861682;28;20212;-72
2022/02/24 18:42:19;;;;;;;3.87;2.20;;;;;;;14.94;36.34;98366.06;6862102;28;20216;-72
2022/02/24 18:45:41;;;;;;;4.93;3.07;;;;;;;15.15;36.66;98406.91;6862482;28;20218;-72
2022/02/24 18:49:04;;;;;;;3.73;2.23;;;;;;;15.56;35.74;98457.38;6861782;28;20209;-72
2022/02/24 18:52:27;;;;;;;5.63;2.40;;;;;;;15.59;35.56;98444.16;6861274;28;20219;-73
2022/02/24 18:55:48;;;;;;;2.90;2.43;;;;;;;15.41;35.34;98392.78;6861890;28;20262;-72
2022/02/24 18:59:12;;;;;;;2.30;2.10;;;;;;;15.75;35.20;98451.47;6860492;28;20226;-72
2022/02/24 19:02:34;;;;;;;2.70;2.23;;;;;;;15.50;35.74;98459.22;6861794;28;20719;-73
2022/02/24 19:05:57;;;;;;;5.40;3.27;;;;;;;15.33;35.91;98439.34;6861829;28;20686;-73
2022/02/24 19:09:19;;;;;;;5.40;2.80;;;;;;;15.55;35.41;98458.47;6861320;28;20254;-74
2022/02/24 19:12:40;;;;;;;3.40;2.50;;;;;;;15.26;35.87;98456.81;6861875;28;20241;-74
2022/02/24 19:16:02;;;;;;;4.23;2.30;;;;;;;15.54;35.45;98446.78;6861294;28;20212;-74
2022/02/24 19:19:24;;;;;;;4.90;2.40;;;;;;;15.49;35.14;98435.00;6861322;28;20215;-74
2022/02/24 19:22:47;;;;;;;3.30;2.17;;;;;;;15.17;35.86;98475.38;6861404;28;20215;-74
2022/02/24 19:26:09;;;;;;;2.63;2.20;;;;;;;14.82;36.09;98471.16;6861522;28;20233;-74
2022/02/24 19:29:31;;;;;;;3.83;2.50;;;;;;;14.93;35.68;98440.44;6861167;28;20222;-74
2022/02/24 19:32:54;;;;;;;3.97;2.37;;;;;;;15.32;35.14;98462.13;6860456;28;20243;-74
2022/02/24 19:36:15;;;;;;;3.47;2.60;;;;;;;14.80;35.41;98389.97;6861274;28;20257;-74
2022/02/24 19:39:39;;;;;;;3.43;2.43;;;;;;;15.32;34.50;98429.53;6865783;28;20219;-72
2022/02/24 19:43:00;;;;;;;3.07;2.03;;;;;;;15.23;34.82;98439.09;6866162;28;20207;-72
2022/02/24 19:46:22;;;;;;;6.13;2.60;;;;;;;15.44;34.95;98468.34;6865632;28;20227;-73
2022/02/24 19:49:44;;;;;;;4.30;2.47;;;;;;;14.76;34.92;98380.66;6866085;28;20211;-74
2022/02/24 19:53:05;;;;;;;2.77;2.30;;;;;;;15.02;35.46;98493.28;6864633;28;20254;-72
2022/02/24 19:56:29;;;;;;;2.77;2.20;;;;;;;15.33;35.09;98490.13;6865695;28;20315;-72
2022/02/24 19:59:51;;;;;;;5.27;2.43;;;;;;;15.14;35.42;98513.06;6865433;28;20205;-71
2022/02/24 20:03:13;;;;;;;2.37;2.03;;;;;;;15.06;35.39;98518.88;6839878;28;20350;-71
2022/02/24 20:06:35;;;;;;;3.43;2.10;;;;;;;15.07;35.40;98517.81;6838717;28;20216;-71
2022/02/24 20:09:57;;;;;;;3.23;2.20;;;;;;;15.27;35.45;98559.78;6838634;28;20239;-71
2022/02/24 20:13:20;;;;;;;1.87;1.77;;;;;;;13.58;42.12;98681.94;6838565;28;20231;-71
2022/02/24 20:16:45;;;;;;;3.37;2.03;;;;;;;11.88;51.43;98662.03;6838846;28;20295;-71
2022/02/24 20:20:07;;;;;;;1.63;1.53;;;;;;;11.07;55.67;98732.91;6838472;28;20222;-71
2022/02/24 20:23:30;;;;;;;1.47;1.30;;;;;;;9.97;58.29;98706.69;6858556;28;20227;-71
2022/02/24 20:26:52;;;;;;;1.53;1.43;;;;;;;10.38;58.01;98782.88;6863367;28;20702;-71
2022/02/24 20:30:15;;;;;;;1.63;1.53;;;;;;;10.31;58.30;98814.34;6860415;28;20671;-71
2022/02/24 20:33:37;;;;;;;4.73;1.53;;;;;;;9.97;57.21;98815.25;6864781;28;20225;-71
2022/02/24 20:36:59;;;;;;;1.57;1.50;;;;;;;9.68;57.48;98796.69;6864691;28;20212;-72
2022/02/24 20:40:21;;;;;;;1.70;1.60;;;;;;;9.54;58.83;98851.47;6863572;28;20647;-71
2022/02/24 20:43:42;;;;;;;2.53;1.73;;;;;;;9.29;59.00;98852.13;6864636;28;20205;-71
2022/02/24 20:47:06;;;;;;;1.70;1.60;;;;;;;9.61;59.89;98870.34;6862637;28;20279;-71
2022/02/24 20:50:27;;;;;;;1.90;1.80;;;;;;;9.98;57.60;98878.03;6864132;28;20213;-71
2022/02/24 20:53:49;;;;;;;1.87;1.77;;;;;;;9.07;57.97;98764.44;6856062;28;20218;-70
2022/02/24 20:57:11;;;;;;;1.70;1.60;;;;;;;9.36;58.72;98864.59;6837798;28;20600;-70
2022/02/24 21:00:33;;;;;;;2.20;1.80;;;;;;;8.98;60.01;98875.88;6837554;28;20678;-73